sensor_id;sensor_type;location;lat;lon;timestamp;P1;durP1;ratioP1;P2;durP2;ratioP2
35689;SDS011;26977;44.830;-0.674;2022-08-11T00:00:50;4.00;;;1.30;;
35689;SDS011;26977;44.830;-0.674;2022-08-11T00:03:16;5.35;;;1.30;;
35689;SDS011;26977;44.830;-0.674;2022-08-11T00:05:51;4.32;;;1.20;;
35689;SDS011;26977;44.830;-0.674;2022-08-11T00:08:20;5.20;;;1.58;;
35689;SDS011;26977;44.830;-0.674;2022-08-11T00:10:56;4.75;;;1.73;;
35689;SDS011;26977;44.830;-0.674;2022-08-11T00:13:35;1.98;;;1.30;;
35689;SDS011;26977;44.830;-0.674;2022-08-11T00:16:03;5.00;;;1.38;;
35689;SDS011;26977;44.830;-0.674;2022-08-11T00:18:42;5.00;;;1.25;;
35689;SDS011;26977;44.830;-0.674;2022-08-11T00:21:10;4.93;;;1.52;;
35689;SDS011;26977;44.830;-0.674;2022-08-11T00:23:41;3.08;;;1.40;;
35689;SDS011;26977;44.830;-0.674;2022-08-11T00:26:11;3.40;;;1.30;;
35689;SDS011;26977;44.830;-0.674;2022-08-11T00:28:38;7.72;;;1.70;;
35689;SDS011;26977;44.830;-0.674;2022-08-11T00:31:10;2.83;;;1.23;;
35689;SDS011;26977;44.830;-0.674;2022-08-11T00:33:45;1.77;;;1.15;;
35689;SDS011;26977;44.830;-0.674;2022-08-11T00:36:16;3.45;;;1.23;;
35689;SDS011;26977;44.830;-0.674;2022-08-11T00:38:44;5.22;;;1.30;;
35689;SDS011;26977;44.830;-0.674;2022-08-11T00:41:33;2.97;;;1.27;;
35689;SDS011;26977;44.830;-0.674;2022-08-11T00:47:04;2.03;;;1.27;;
35689;SDS011;26977;44.830;-0.674;2022-08-11T00:52:46;2.13;;;1.33;;
35689;SDS011;26977;44.830;-0.674;2022-08-11T01:13:33;3.20;;;1.23;;
35689;SDS011;26977;44.830;-0.674;2022-08-11T01:22:17;2.35;;;1.17;;
35689;SDS011;26977;44.830;-0.674;2022-08-11T01:31:07;2.38;;;1.30;;
35689;SDS011;26977;44.830;-0.674;2022-08-11T01:59:21;2.70;;;1.40;;
35689;SDS011;26977;44.830;-0.674;2022-08-11T02:17:22;5.35;;;1.67;;
35689;SDS011;26977;44.830;-0.674;2022-08-11T02:31:11;3.33;;;1.60;;
35689;SDS011;26977;44.830;-0.674;2022-08-11T02:34:09;7.00;;;1.80;;
35689;SDS011;26977;44.830;-0.674;2022-08-11T02:36:51;3.95;;;1.40;;
35689;SDS011;26977;44.830;-0.674;2022-08-11T02:39:21;3.38;;;1.55;;
35689;SDS011;26977;44.830;-0.674;2022-08-11T02:45:03;3.50;;;1.27;;
35689;SDS011;26977;44.830;-0.674;2022-08-11T02:56:21;3.03;;;1.42;;
35689;SDS011;26977;44.830;-0.674;2022-08-11T03:04:58;2.70;;;1.40;;
35689;SDS011;26977;44.830;-0.674;2022-08-11T03:16:55;3.83;;;1.73;;
35689;SDS011;26977;44.830;-0.674;2022-08-11T03:19:45;4.43;;;1.60;;
35689;SDS011;26977;44.830;-0.674;2022-08-11T03:22:24;4.72;;;1.80;;
35689;SDS011;26977;44.830;-0.674;2022-08-11T03:25:18;10.75;;;1.63;;
35689;SDS011;26977;44.830;-0.674;2022-08-11T03:31:00;4.30;;;1.67;;
35689;SDS011;26977;44.830;-0.674;2022-08-11T03:33:40;4.80;;;1.70;;
35689;SDS011;26977;44.830;-0.674;2022-08-11T03:39:21;4.28;;;1.77;;
35689;SDS011;26977;44.830;-0.674;2022-08-11T04:02:08;3.85;;;1.48;;
35689;SDS011;26977;44.830;-0.674;2022-08-11T04:50:14;3.45;;;1.63;;
35689;SDS011;26977;44.830;-0.674;2022-08-11T04:56:26;4.05;;;1.80;;
35689;SDS011;26977;44.830;-0.674;2022-08-11T05:10:52;9.07;;;2.13;;
35689;SDS011;26977;44.830;-0.674;2022-08-11T05:13:44;4.32;;;2.42;;
35689;SDS011;26977;44.830;-0.674;2022-08-11T05:16:31;10.60;;;2.08;;
35689;SDS011;26977;44.830;-0.674;2022-08-11T05:19:23;3.15;;;1.75;;
35689;SDS011;26977;44.830;-0.674;2022-08-11T05:22:09;8.73;;;1.90;;
35689;SDS011;26977;44.830;-0.674;2022-08-11T05:25:00;12.05;;;2.30;;
35689;SDS011;26977;44.830;-0.674;2022-08-11T05:28:02;9.18;;;2.15;;
35689;SDS011;26977;44.830;-0.674;2022-08-11T05:31:25;10.10;;;2.22;;
35689;SDS011;26977;44.830;-0.674;2022-08-11T05:34:10;7.53;;;2.00;;
35689;SDS011;26977;44.830;-0.674;2022-08-11T05:37:02;8.55;;;2.08;;
35689;SDS011;26977;44.830;-0.674;2022-08-11T05:39:32;7.45;;;1.88;;
35689;SDS011;26977;44.830;-0.674;2022-08-11T05:42:22;11.38;;;1.77;;
35689;SDS011;26977;44.830;-0.674;2022-08-11T05:45:10;13.65;;;2.20;;
35689;SDS011;26977;44.830;-0.674;2022-08-11T05:47:57;8.18;;;2.10;;
35689;SDS011;26977;44.830;-0.674;2022-08-11T05:50:48;10.30;;;2.08;;
35689;SDS011;26977;44.830;-0.674;2022-08-11T05:53:57;9.73;;;2.30;;
35689;SDS011;26977;44.830;-0.674;2022-08-11T05:56:48;6.35;;;2.10;;
35689;SDS011;26977;44.830;-0.674;2022-08-11T05:59:21;7.43;;;2.30;;
35689;SDS011;26977;44.830;-0.674;2022-08-11T06:01:48;7.20;;;2.33;;
35689;SDS011;26977;44.830;-0.674;2022-08-11T06:04:16;5.65;;;1.88;;
35689;SDS011;26977;44.830;-0.674;2022-08-11T06:09:19;3.13;;;2.28;;
35689;SDS011;26977;44.830;-0.674;2022-08-11T06:11:48;9.68;;;2.95;;
35689;SDS011;26977;44.830;-0.674;2022-08-11T06:14:14;10.43;;;2.17;;
35689;SDS011;26977;44.830;-0.674;2022-08-11T06:16:41;4.70;;;2.15;;
35689;SDS011;26977;44.830;-0.674;2022-08-11T06:19:11;10.55;;;2.15;;
35689;SDS011;26977;44.830;-0.674;2022-08-11T06:21:42;7.95;;;1.80;;
35689;SDS011;26977;44.830;-0.674;2022-08-11T06:24:11;9.35;;;2.20;;
35689;SDS011;26977;44.830;-0.674;2022-08-11T06:26:49;7.13;;;2.30;;
35689;SDS011;26977;44.830;-0.674;2022-08-11T06:29:16;6.90;;;2.00;;
35689;SDS011;26977;44.830;-0.674;2022-08-11T06:31:52;8.52;;;2.47;;
35689;SDS011;26977;44.830;-0.674;2022-08-11T06:39:47;4.25;;;2.40;;
35689;SDS011;26977;44.830;-0.674;2022-08-11T06:42:45;5.07;;;2.20;;
35689;SDS011;26977;44.830;-0.674;2022-08-11T06:45:27;8.55;;;1.92;;
35689;SDS011;26977;44.830;-0.674;2022-08-11T06:47:53;9.90;;;2.30;;
35689;SDS011;26977;44.830;-0.674;2022-08-11T06:50:24;9.07;;;2.20;;
35689;SDS011;26977;44.830;-0.674;2022-08-11T06:53:09;16.65;;;2.95;;
35689;SDS011;26977;44.830;-0.674;2022-08-11T06:55:37;9.07;;;2.08;;
35689;SDS011;26977;44.830;-0.674;2022-08-11T06:58:28;19.02;;;3.40;;
35689;SDS011;26977;44.830;-0.674;2022-08-11T07:01:17;15.43;;;2.97;;
35689;SDS011;26977;44.830;-0.674;2022-08-11T07:03:55;8.27;;;2.35;;
35689;SDS011;26977;44.830;-0.674;2022-08-11T07:06:53;9.18;;;2.28;;
35689;SDS011;26977;44.830;-0.674;2022-08-11T07:12:46;6.88;;;2.47;;
35689;SDS011;26977;44.830;-0.674;2022-08-11T07:15:36;6.70;;;2.05;;
35689;SDS011;26977;44.830;-0.674;2022-08-11T07:18:06;12.10;;;2.28;;
35689;SDS011;26977;44.830;-0.674;2022-08-11T07:23:54;6.30;;;2.45;;
35689;SDS011;26977;44.830;-0.674;2022-08-11T07:26:42;9.38;;;2.00;;
35689;SDS011;26977;44.830;-0.674;2022-08-11T07:29:33;10.02;;;2.40;;
35689;SDS011;26977;44.830;-0.674;2022-08-11T07:32:01;7.35;;;2.35;;
35689;SDS011;26977;44.830;-0.674;2022-08-11T07:35:01;9.25;;;2.33;;
35689;SDS011;26977;44.830;-0.674;2022-08-11T07:37:33;8.65;;;2.40;;
35689;SDS011;26977;44.830;-0.674;2022-08-11T07:40:00;4.88;;;2.15;;
35689;SDS011;26977;44.830;-0.674;2022-08-11T07:42:27;6.25;;;2.33;;
35689;SDS011;26977;44.830;-0.674;2022-08-11T07:47:45;4.15;;;2.28;;
35689;SDS011;26977;44.830;-0.674;2022-08-11T07:50:30;6.00;;;2.60;;
35689;SDS011;26977;44.830;-0.674;2022-08-11T07:53:15;10.50;;;2.42;;
35689;SDS011;26977;44.830;-0.674;2022-08-11T07:55:42;9.07;;;2.70;;
35689;SDS011;26977;44.830;-0.674;2022-08-11T07:58:09;7.85;;;2.50;;
35689;SDS011;26977;44.830;-0.674;2022-08-11T08:00:54;6.53;;;2.58;;
35689;SDS011;26977;44.830;-0.674;2022-08-11T08:03:40;7.90;;;2.75;;
35689;SDS011;26977;44.830;-0.674;2022-08-11T08:06:26;9.27;;;2.70;;
35689;SDS011;26977;44.830;-0.674;2022-08-11T08:09:13;11.63;;;2.35;;
35689;SDS011;26977;44.830;-0.674;2022-08-11T08:12:00;11.13;;;2.78;;
35689;SDS011;26977;44.830;-0.674;2022-08-11T08:14:46;10.98;;;3.15;;
35689;SDS011;26977;44.830;-0.674;2022-08-11T08:17:30;10.18;;;2.92;;
35689;SDS011;26977;44.830;-0.674;2022-08-11T08:20:17;8.52;;;3.28;;
35689;SDS011;26977;44.830;-0.674;2022-08-11T08:22:46;6.70;;;2.70;;
35689;SDS011;26977;44.830;-0.674;2022-08-11T08:25:16;6.53;;;2.72;;
35689;SDS011;26977;44.830;-0.674;2022-08-11T08:27:42;10.32;;;3.30;;
35689;SDS011;26977;44.830;-0.674;2022-08-11T08:30:09;9.48;;;3.15;;
35689;SDS011;26977;44.830;-0.674;2022-08-11T08:32:56;7.45;;;3.20;;
35689;SDS011;26977;44.830;-0.674;2022-08-11T08:35:24;9.65;;;3.30;;
35689;SDS011;26977;44.830;-0.674;2022-08-11T08:37:50;9.02;;;2.92;;
35689;SDS011;26977;44.830;-0.674;2022-08-11T08:40:17;10.32;;;3.25;;
35689;SDS011;26977;44.830;-0.674;2022-08-11T08:42:52;6.68;;;3.42;;
35689;SDS011;26977;44.830;-0.674;2022-08-11T08:45:21;6.68;;;3.20;;
35689;SDS011;26977;44.830;-0.674;2022-08-11T08:50:25;10.32;;;3.25;;
35689;SDS011;26977;44.830;-0.674;2022-08-11T08:53:14;5.53;;;3.15;;
35689;SDS011;26977;44.830;-0.674;2022-08-11T08:55:57;10.50;;;3.23;;
35689;SDS011;26977;44.830;-0.674;2022-08-11T08:58:24;6.78;;;3.30;;
35689;SDS011;26977;44.830;-0.674;2022-08-11T09:00:51;7.13;;;3.22;;
35689;SDS011;26977;44.830;-0.674;2022-08-11T09:03:18;4.65;;;3.50;;
35689;SDS011;26977;44.830;-0.674;2022-08-11T09:05:48;6.47;;;3.10;;
35689;SDS011;26977;44.830;-0.674;2022-08-11T09:08:19;9.10;;;3.63;;
35689;SDS011;26977;44.830;-0.674;2022-08-11T09:10:46;6.22;;;3.22;;
35689;SDS011;26977;44.830;-0.674;2022-08-11T09:13:35;5.88;;;3.17;;
35689;SDS011;26977;44.830;-0.674;2022-08-11T09:16:08;5.00;;;3.47;;
35689;SDS011;26977;44.830;-0.674;2022-08-11T09:18:37;10.43;;;3.45;;
35689;SDS011;26977;44.830;-0.674;2022-08-11T09:21:08;10.57;;;3.65;;
35689;SDS011;26977;44.830;-0.674;2022-08-11T09:23:39;12.02;;;3.35;;
35689;SDS011;26977;44.830;-0.674;2022-08-11T09:26:25;9.10;;;3.85;;
35689;SDS011;26977;44.830;-0.674;2022-08-11T09:29:30;9.90;;;3.72;;
35689;SDS011;26977;44.830;-0.674;2022-08-11T09:31:57;9.05;;;3.78;;
35689;SDS011;26977;44.830;-0.674;2022-08-11T09:34:24;10.02;;;3.63;;
35689;SDS011;26977;44.830;-0.674;2022-08-11T09:36:50;9.77;;;4.25;;
35689;SDS011;26977;44.830;-0.674;2022-08-11T09:39:36;10.20;;;3.88;;
35689;SDS011;26977;44.830;-0.674;2022-08-11T09:42:23;6.63;;;3.85;;
35689;SDS011;26977;44.830;-0.674;2022-08-11T09:45:12;10.77;;;3.97;;
35689;SDS011;26977;44.830;-0.674;2022-08-11T09:47:38;9.20;;;4.20;;
35689;SDS011;26977;44.830;-0.674;2022-08-11T09:50:06;7.85;;;3.55;;
35689;SDS011;26977;44.830;-0.674;2022-08-11T09:52:35;9.10;;;3.63;;
35689;SDS011;26977;44.830;-0.674;2022-08-11T09:55:03;4.72;;;3.92;;
35689;SDS011;26977;44.830;-0.674;2022-08-11T09:57:35;7.45;;;3.83;;
35689;SDS011;26977;44.830;-0.674;2022-08-11T10:00:30;4.65;;;3.72;;
35689;SDS011;26977;44.830;-0.674;2022-08-11T10:03:24;7.38;;;3.67;;
35689;SDS011;26977;44.830;-0.674;2022-08-11T10:06:09;13.68;;;4.25;;
35689;SDS011;26977;44.830;-0.674;2022-08-11T10:11:21;8.77;;;3.90;;
35689;SDS011;26977;44.830;-0.674;2022-08-11T10:13:48;10.43;;;4.10;;
35689;SDS011;26977;44.830;-0.674;2022-08-11T10:16:36;8.93;;;3.70;;
35689;SDS011;26977;44.830;-0.674;2022-08-11T10:19:05;7.05;;;4.28;;
35689;SDS011;26977;44.830;-0.674;2022-08-11T10:21:37;6.07;;;4.30;;
35689;SDS011;26977;44.830;-0.674;2022-08-11T10:27:40;5.03;;;4.00;;
35689;SDS011;26977;44.830;-0.674;2022-08-11T10:30:08;4.30;;;3.75;;
35689;SDS011;26977;44.830;-0.674;2022-08-11T10:32:53;7.80;;;3.80;;
35689;SDS011;26977;44.830;-0.674;2022-08-11T10:35:40;7.00;;;3.80;;
35689;SDS011;26977;44.830;-0.674;2022-08-11T10:38:07;8.90;;;3.90;;
35689;SDS011;26977;44.830;-0.674;2022-08-11T10:40:34;10.07;;;3.88;;
35689;SDS011;26977;44.830;-0.674;2022-08-11T10:43:01;8.52;;;3.65;;
35689;SDS011;26977;44.830;-0.674;2022-08-11T10:45:29;8.23;;;3.47;;
35689;SDS011;26977;44.830;-0.674;2022-08-11T10:48:16;7.13;;;3.90;;
35689;SDS011;26977;44.830;-0.674;2022-08-11T10:50:45;9.68;;;3.53;;
35689;SDS011;26977;44.830;-0.674;2022-08-11T10:53:31;12.10;;;3.63;;
35689;SDS011;26977;44.830;-0.674;2022-08-11T10:56:17;10.07;;;3.72;;
35689;SDS011;26977;44.830;-0.674;2022-08-11T10:59:02;6.45;;;3.88;;
35689;SDS011;26977;44.830;-0.674;2022-08-11T11:01:33;5.70;;;3.95;;
35689;SDS011;26977;44.830;-0.674;2022-08-11T11:04:23;9.75;;;3.80;;
35689;SDS011;26977;44.830;-0.674;2022-08-11T11:09:43;4.88;;;3.63;;
35689;SDS011;26977;44.830;-0.674;2022-08-11T11:12:23;7.78;;;3.50;;
35689;SDS011;26977;44.830;-0.674;2022-08-11T11:15:13;8.27;;;3.70;;
35689;SDS011;26977;44.830;-0.674;2022-08-11T11:18:03;5.93;;;3.72;;
35689;SDS011;26977;44.830;-0.674;2022-08-11T11:30:09;8.75;;;3.80;;
35689;SDS011;26977;44.830;-0.674;2022-08-11T11:35:23;7.55;;;3.70;;
35689;SDS011;26977;44.830;-0.674;2022-08-11T11:37:55;5.57;;;3.40;;
35689;SDS011;26977;44.830;-0.674;2022-08-11T11:40:22;6.65;;;3.38;;
35689;SDS011;26977;44.830;-0.674;2022-08-11T11:42:48;5.13;;;2.80;;
35689;SDS011;26977;44.830;-0.674;2022-08-11T11:45:19;5.18;;;3.10;;
35689;SDS011;26977;44.830;-0.674;2022-08-11T11:47:46;9.80;;;3.40;;
35689;SDS011;26977;44.830;-0.674;2022-08-11T11:50:17;4.55;;;2.95;;
35689;SDS011;26977;44.830;-0.674;2022-08-11T11:53:02;9.98;;;3.42;;
35689;SDS011;26977;44.830;-0.674;2022-08-11T11:55:30;4.88;;;3.38;;
35689;SDS011;26977;44.830;-0.674;2022-08-11T11:57:57;4.38;;;3.35;;
35689;SDS011;26977;44.830;-0.674;2022-08-11T12:00:43;6.05;;;3.40;;
35689;SDS011;26977;44.830;-0.674;2022-08-11T12:03:28;5.95;;;3.28;;
35689;SDS011;26977;44.830;-0.674;2022-08-11T12:05:56;7.93;;;3.40;;
35689;SDS011;26977;44.830;-0.674;2022-08-11T12:08:22;6.03;;;3.40;;
35689;SDS011;26977;44.830;-0.674;2022-08-11T12:10:51;6.53;;;3.95;;
35689;SDS011;26977;44.830;-0.674;2022-08-11T12:13:38;7.55;;;3.80;;
35689;SDS011;26977;44.830;-0.674;2022-08-11T12:16:05;15.23;;;3.75;;
35689;SDS011;26977;44.830;-0.674;2022-08-11T12:18:34;4.80;;;3.70;;
35689;SDS011;26977;44.830;-0.674;2022-08-11T12:21:01;6.10;;;3.90;;
35689;SDS011;26977;44.830;-0.674;2022-08-11T12:23:28;6.72;;;3.83;;
35689;SDS011;26977;44.830;-0.674;2022-08-11T12:26:14;9.68;;;4.10;;
35689;SDS011;26977;44.830;-0.674;2022-08-11T12:29:00;4.40;;;4.00;;
35689;SDS011;26977;44.830;-0.674;2022-08-11T12:31:29;6.07;;;4.53;;
35689;SDS011;26977;44.830;-0.674;2022-08-11T12:34:02;5.90;;;4.72;;
35689;SDS011;26977;44.830;-0.674;2022-08-11T12:36:31;11.48;;;5.13;;
35689;SDS011;26977;44.830;-0.674;2022-08-11T12:39:01;6.38;;;4.18;;
35689;SDS011;26977;44.830;-0.674;2022-08-11T12:41:29;8.43;;;3.95;;
35689;SDS011;26977;44.830;-0.674;2022-08-11T12:44:15;6.85;;;4.30;;
35689;SDS011;26977;44.830;-0.674;2022-08-11T12:47:00;6.20;;;4.45;;
35689;SDS011;26977;44.830;-0.674;2022-08-11T12:49:27;7.07;;;5.05;;
35689;SDS011;26977;44.830;-0.674;2022-08-11T12:52:20;7.60;;;4.80;;
35689;SDS011;26977;44.830;-0.674;2022-08-11T12:57:34;9.35;;;4.70;;
35689;SDS011;26977;44.830;-0.674;2022-08-11T13:00:25;7.85;;;4.60;;
35689;SDS011;26977;44.830;-0.674;2022-08-11T13:03:10;6.28;;;4.90;;
35689;SDS011;26977;44.830;-0.674;2022-08-11T13:05:57;7.45;;;5.70;;
35689;SDS011;26977;44.830;-0.674;2022-08-11T13:08:26;6.82;;;4.85;;
35689;SDS011;26977;44.830;-0.674;2022-08-11T13:10:54;6.03;;;5.10;;
35689;SDS011;26977;44.830;-0.674;2022-08-11T13:13:41;5.32;;;4.55;;
35689;SDS011;26977;44.830;-0.674;2022-08-11T13:16:09;7.72;;;5.20;;
35689;SDS011;26977;44.830;-0.674;2022-08-11T13:18:35;5.15;;;4.65;;
35689;SDS011;26977;44.830;-0.674;2022-08-11T13:21:02;9.02;;;5.00;;
35689;SDS011;26977;44.830;-0.674;2022-08-11T13:23:29;10.93;;;5.10;;
35689;SDS011;26977;44.830;-0.674;2022-08-11T13:25:55;7.32;;;4.40;;
35689;SDS011;26977;44.830;-0.674;2022-08-11T13:28:22;10.35;;;4.82;;
35689;SDS011;26977;44.830;-0.674;2022-08-11T13:30:49;10.73;;;4.70;;
35689;SDS011;26977;44.830;-0.674;2022-08-11T13:33:35;6.78;;;5.38;;
35689;SDS011;26977;44.830;-0.674;2022-08-11T13:36:05;9.10;;;5.25;;
35689;SDS011;26977;44.830;-0.674;2022-08-11T13:38:31;5.78;;;5.15;;
35689;SDS011;26977;44.830;-0.674;2022-08-11T13:40:58;6.63;;;5.88;;
35689;SDS011;26977;44.830;-0.674;2022-08-11T13:43:25;8.90;;;6.07;;
35689;SDS011;26977;44.830;-0.674;2022-08-11T13:45:51;8.77;;;7.65;;
35689;SDS011;26977;44.830;-0.674;2022-08-11T13:48:38;16.92;;;15.23;;
35689;SDS011;26977;44.830;-0.674;2022-08-11T13:51:06;12.93;;;11.57;;
35689;SDS011;26977;44.830;-0.674;2022-08-11T13:53:52;19.65;;;15.00;;
35689;SDS011;26977;44.830;-0.674;2022-08-11T13:56:20;17.58;;;15.88;;
35689;SDS011;26977;44.830;-0.674;2022-08-11T13:58:47;21.23;;;19.30;;
35689;SDS011;26977;44.830;-0.674;2022-08-11T14:01:14;22.83;;;20.73;;
35689;SDS011;26977;44.830;-0.674;2022-08-11T14:03:40;22.48;;;20.08;;
35689;SDS011;26977;44.830;-0.674;2022-08-11T14:06:07;24.05;;;21.48;;
35689;SDS011;26977;44.830;-0.674;2022-08-11T14:08:34;31.98;;;28.60;;
35689;SDS011;26977;44.830;-0.674;2022-08-11T14:11:03;30.40;;;27.38;;
35689;SDS011;26977;44.830;-0.674;2022-08-11T14:13:49;26.80;;;24.10;;
35689;SDS011;26977;44.830;-0.674;2022-08-11T14:16:51;31.85;;;28.58;;
35689;SDS011;26977;44.830;-0.674;2022-08-11T14:19:11;32.40;;;29.08;;
35689;SDS011;26977;44.830;-0.674;2022-08-11T14:21:40;29.98;;;27.05;;
35689;SDS011;26977;44.830;-0.674;2022-08-11T14:24:26;27.38;;;24.65;;
35689;SDS011;26977;44.830;-0.674;2022-08-11T14:26:52;28.67;;;25.60;;
35689;SDS011;26977;44.830;-0.674;2022-08-11T14:29:19;27.98;;;25.35;;
35689;SDS011;26977;44.830;-0.674;2022-08-11T14:31:57;26.85;;;24.30;;
35689;SDS011;26977;44.830;-0.674;2022-08-11T14:34:27;30.38;;;27.35;;
35689;SDS011;26977;44.830;-0.674;2022-08-11T14:36:58;28.15;;;25.15;;
35689;SDS011;26977;44.830;-0.674;2022-08-11T14:39:27;28.10;;;25.25;;
35689;SDS011;26977;44.830;-0.674;2022-08-11T14:41:56;28.85;;;25.80;;
35689;SDS011;26977;44.830;-0.674;2022-08-11T14:44:45;29.27;;;26.25;;
35689;SDS011;26977;44.830;-0.674;2022-08-11T14:47:35;27.27;;;24.38;;
35689;SDS011;26977;44.830;-0.674;2022-08-11T14:50:02;20.40;;;18.37;;
35689;SDS011;26977;44.830;-0.674;2022-08-11T14:52:31;22.08;;;15.98;;
35689;SDS011;26977;44.830;-0.674;2022-08-11T14:55:01;18.35;;;16.52;;
35689;SDS011;26977;44.830;-0.674;2022-08-11T14:57:46;19.17;;;17.13;;
35689;SDS011;26977;44.830;-0.674;2022-08-11T15:00:13;18.65;;;16.75;;
35689;SDS011;26977;44.830;-0.674;2022-08-11T15:02:41;18.63;;;17.00;;
35689;SDS011;26977;44.830;-0.674;2022-08-11T15:05:26;18.55;;;16.75;;
35689;SDS011;26977;44.830;-0.674;2022-08-11T15:07:53;21.63;;;19.27;;
35689;SDS011;26977;44.830;-0.674;2022-08-11T15:10:20;19.80;;;17.70;;
35689;SDS011;26977;44.830;-0.674;2022-08-11T15:12:46;20.50;;;18.50;;
35689;SDS011;26977;44.830;-0.674;2022-08-11T15:15:13;20.05;;;18.05;;
35689;SDS011;26977;44.830;-0.674;2022-08-11T15:17:59;19.83;;;17.77;;
35689;SDS011;26977;44.830;-0.674;2022-08-11T15:20:28;25.75;;;19.05;;
35689;SDS011;26977;44.830;-0.674;2022-08-11T15:23:13;21.40;;;19.35;;
35689;SDS011;26977;44.830;-0.674;2022-08-11T15:28:43;23.08;;;20.88;;
35689;SDS011;26977;44.830;-0.674;2022-08-11T15:31:33;23.30;;;20.85;;
35689;SDS011;26977;44.830;-0.674;2022-08-11T15:34:08;23.38;;;21.02;;
35689;SDS011;26977;44.830;-0.674;2022-08-11T15:36:56;23.13;;;20.63;;
35689;SDS011;26977;44.830;-0.674;2022-08-11T15:42:37;19.95;;;18.13;;
35689;SDS011;26977;44.830;-0.674;2022-08-11T15:45:30;21.80;;;19.38;;
35689;SDS011;26977;44.830;-0.674;2022-08-11T15:48:13;22.25;;;20.05;;
35689;SDS011;26977;44.830;-0.674;2022-08-11T15:51:05;23.77;;;19.30;;
35689;SDS011;26977;44.830;-0.674;2022-08-11T15:53:44;22.65;;;20.25;;
35689;SDS011;26977;44.830;-0.674;2022-08-11T15:56:14;23.27;;;19.58;;
35689;SDS011;26977;44.830;-0.674;2022-08-11T15:58:43;20.80;;;18.88;;
35689;SDS011;26977;44.830;-0.674;2022-08-11T16:01:29;19.58;;;17.27;;
35689;SDS011;26977;44.830;-0.674;2022-08-11T16:04:15;21.08;;;18.27;;
35689;SDS011;26977;44.830;-0.674;2022-08-11T16:06:51;22.27;;;18.35;;
35689;SDS011;26977;44.830;-0.674;2022-08-11T16:09:31;19.95;;;17.80;;
35689;SDS011;26977;44.830;-0.674;2022-08-11T16:12:03;20.13;;;18.05;;
35689;SDS011;26977;44.830;-0.674;2022-08-11T16:14:33;19.00;;;17.02;;
35689;SDS011;26977;44.830;-0.674;2022-08-11T16:17:20;20.70;;;18.30;;
35689;SDS011;26977;44.830;-0.674;2022-08-11T16:19:50;19.25;;;17.45;;
35689;SDS011;26977;44.830;-0.674;2022-08-11T16:22:22;18.77;;;17.05;;
35689;SDS011;26977;44.830;-0.674;2022-08-11T16:24:55;20.63;;;18.58;;
35689;SDS011;26977;44.830;-0.674;2022-08-11T16:27:22;19.52;;;17.73;;
35689;SDS011;26977;44.830;-0.674;2022-08-11T16:29:49;22.88;;;17.80;;
35689;SDS011;26977;44.830;-0.674;2022-08-11T16:32:19;20.42;;;18.50;;
35689;SDS011;26977;44.830;-0.674;2022-08-11T16:35:06;20.77;;;18.60;;
35689;SDS011;26977;44.830;-0.674;2022-08-11T16:37:57;19.67;;;16.60;;
35689;SDS011;26977;44.830;-0.674;2022-08-11T16:40:43;20.15;;;18.20;;
35689;SDS011;26977;44.830;-0.674;2022-08-11T16:43:12;21.15;;;19.05;;
35689;SDS011;26977;44.830;-0.674;2022-08-11T16:45:59;22.10;;;19.73;;
35689;SDS011;26977;44.830;-0.674;2022-08-11T16:48:47;20.25;;;18.38;;
35689;SDS011;26977;44.830;-0.674;2022-08-11T16:51:13;21.80;;;19.67;;
35689;SDS011;26977;44.830;-0.674;2022-08-11T16:53:41;22.80;;;20.42;;
35689;SDS011;26977;44.830;-0.674;2022-08-11T16:56:08;22.02;;;19.92;;
35689;SDS011;26977;44.830;-0.674;2022-08-11T16:58:41;22.48;;;20.20;;
35689;SDS011;26977;44.830;-0.674;2022-08-11T17:01:27;22.60;;;20.20;;
35689;SDS011;26977;44.830;-0.674;2022-08-11T17:03:56;21.73;;;19.50;;
35689;SDS011;26977;44.830;-0.674;2022-08-11T17:06:44;24.85;;;20.05;;
35689;SDS011;26977;44.830;-0.674;2022-08-11T17:09:31;22.60;;;20.17;;
35689;SDS011;26977;44.830;-0.674;2022-08-11T17:12:19;23.13;;;20.73;;
35689;SDS011;26977;44.830;-0.674;2022-08-11T17:15:08;26.52;;;22.77;;
35689;SDS011;26977;44.830;-0.674;2022-08-11T17:17:57;25.98;;;22.83;;
35689;SDS011;26977;44.830;-0.674;2022-08-11T17:20:24;26.17;;;23.73;;
35689;SDS011;26977;44.830;-0.674;2022-08-11T17:22:51;25.75;;;23.05;;
35689;SDS011;26977;44.830;-0.674;2022-08-11T17:25:57;26.08;;;23.45;;
35689;SDS011;26977;44.830;-0.674;2022-08-11T17:28:23;26.08;;;23.67;;
35689;SDS011;26977;44.830;-0.674;2022-08-11T17:30:49;26.70;;;24.00;;
35689;SDS011;26977;44.830;-0.674;2022-08-11T17:33:35;29.25;;;26.05;;
35689;SDS011;26977;44.830;-0.674;2022-08-11T17:36:20;31.17;;;27.80;;
35689;SDS011;26977;44.830;-0.674;2022-08-11T17:38:47;28.80;;;26.20;;
35689;SDS011;26977;44.830;-0.674;2022-08-11T17:41:14;23.48;;;19.70;;
35689;SDS011;26977;44.830;-0.674;2022-08-11T17:43:59;17.52;;;15.70;;
35689;SDS011;26977;44.830;-0.674;2022-08-11T17:46:45;18.52;;;16.48;;
35689;SDS011;26977;44.830;-0.674;2022-08-11T17:49:31;18.60;;;15.60;;
35689;SDS011;26977;44.830;-0.674;2022-08-11T17:52:01;16.75;;;15.25;;
35689;SDS011;26977;44.830;-0.674;2022-08-11T17:54:47;13.82;;;12.55;;
35689;SDS011;26977;44.830;-0.674;2022-08-11T17:57:33;14.38;;;12.68;;
35689;SDS011;26977;44.830;-0.674;2022-08-11T18:00:19;16.75;;;12.48;;
35689;SDS011;26977;44.830;-0.674;2022-08-11T18:02:46;13.75;;;12.27;;
35689;SDS011;26977;44.830;-0.674;2022-08-11T18:05:32;14.38;;;13.07;;
35689;SDS011;26977;44.830;-0.674;2022-08-11T18:08:00;14.40;;;12.90;;
35689;SDS011;26977;44.830;-0.674;2022-08-11T18:10:48;17.15;;;14.10;;
35689;SDS011;26977;44.830;-0.674;2022-08-11T18:13:34;17.10;;;13.65;;
35689;SDS011;26977;44.830;-0.674;2022-08-11T18:16:20;16.27;;;13.68;;
35689;SDS011;26977;44.830;-0.674;2022-08-11T18:19:05;19.20;;;13.93;;
35689;SDS011;26977;44.830;-0.674;2022-08-11T18:21:50;15.07;;;13.38;;
35689;SDS011;26977;44.830;-0.674;2022-08-11T18:24:39;17.85;;;14.05;;
35689;SDS011;26977;44.830;-0.674;2022-08-11T18:27:29;14.63;;;13.13;;
35689;SDS011;26977;44.830;-0.674;2022-08-11T18:30:15;15.73;;;13.82;;
35689;SDS011;26977;44.830;-0.674;2022-08-11T18:33:00;15.60;;;13.95;;
35689;SDS011;26977;44.830;-0.674;2022-08-11T18:35:49;18.38;;;14.15;;
35689;SDS011;26977;44.830;-0.674;2022-08-11T18:38:37;18.38;;;14.50;;
35689;SDS011;26977;44.830;-0.674;2022-08-11T18:41:24;18.58;;;15.50;;
35689;SDS011;26977;44.830;-0.674;2022-08-11T18:44:12;21.13;;;16.92;;
35689;SDS011;26977;44.830;-0.674;2022-08-11T18:46:57;18.77;;;16.08;;
35689;SDS011;26977;44.830;-0.674;2022-08-11T18:49:45;17.63;;;15.82;;
35689;SDS011;26977;44.830;-0.674;2022-08-11T18:52:33;18.83;;;16.73;;
35689;SDS011;26977;44.830;-0.674;2022-08-11T18:55:19;19.40;;;17.25;;
35689;SDS011;26977;44.830;-0.674;2022-08-11T18:58:04;22.13;;;17.60;;
35689;SDS011;26977;44.830;-0.674;2022-08-11T19:00:56;22.92;;;17.65;;
35689;SDS011;26977;44.830;-0.674;2022-08-11T19:03:43;19.65;;;17.65;;
35689;SDS011;26977;44.830;-0.674;2022-08-11T19:06:28;22.30;;;17.77;;
35689;SDS011;26977;44.830;-0.674;2022-08-11T19:09:15;19.65;;;17.75;;
35689;SDS011;26977;44.830;-0.674;2022-08-11T19:12:02;19.52;;;16.92;;
35689;SDS011;26977;44.830;-0.674;2022-08-11T19:14:48;19.42;;;16.40;;
35689;SDS011;26977;44.830;-0.674;2022-08-11T19:17:35;18.77;;;16.80;;
35689;SDS011;26977;44.830;-0.674;2022-08-11T19:20:23;21.98;;;16.17;;
35689;SDS011;26977;44.830;-0.674;2022-08-11T19:23:11;19.52;;;15.95;;
35689;SDS011;26977;44.830;-0.674;2022-08-11T19:25:57;17.63;;;15.43;;
35689;SDS011;26977;44.830;-0.674;2022-08-11T19:28:43;16.73;;;14.85;;
35689;SDS011;26977;44.830;-0.674;2022-08-11T19:31:30;17.15;;;15.18;;
35689;SDS011;26977;44.830;-0.674;2022-08-11T19:34:16;17.98;;;15.05;;
35689;SDS011;26977;44.830;-0.674;2022-08-11T19:37:03;18.33;;;13.63;;